sensor_id;sensor_type;location;lat;lon;timestamp;P1;durP1;ratioP1;P2;durP2;ratioP2
12848;SDS011;6493;50.928;7.172;2023-05-07T00:04:35;0.50;;;0.50;;
12848;SDS011;6493;50.928;7.172;2023-05-07T00:09:40;1.33;;;0.53;;
12848;SDS011;6493;50.928;7.172;2023-05-07T00:14:44;0.53;;;0.53;;
12848;SDS011;6493;50.928;7.172;2023-05-07T00:19:49;0.77;;;0.50;;
12848;SDS011;6493;50.928;7.172;2023-05-07T00:24:53;0.30;;;0.30;;
12848;SDS011;6493;50.928;7.172;2023-05-07T00:29:56;0.30;;;0.30;;
12848;SDS011;6493;50.928;7.172;2023-05-07T00:35:01;0.80;;;0.50;;
12848;SDS011;6493;50.928;7.172;2023-05-07T00:40:05;0.67;;;0.40;;
12848;SDS011;6493;50.928;7.172;2023-05-07T00:45:10;0.50;;;0.40;;
12848;SDS011;6493;50.928;7.172;2023-05-07T00:50:15;0.60;;;0.60;;
12848;SDS011;6493;50.928;7.172;2023-05-07T00:55:21;0.33;;;0.33;;
12848;SDS011;6493;50.928;7.172;2023-05-07T01:00:25;0.40;;;0.40;;
12848;SDS011;6493;50.928;7.172;2023-05-07T01:05:30;0.30;;;0.30;;
12848;SDS011;6493;50.928;7.172;2023-05-07T01:10:35;0.20;;;0.20;;
12848;SDS011;6493;50.928;7.172;2023-05-07T01:15:38;0.43;;;0.43;;
12848;SDS011;6493;50.928;7.172;2023-05-07T01:20:44;0.30;;;0.30;;
12848;SDS011;6493;50.928;7.172;2023-05-07T01:25:52;0.53;;;0.50;;
12848;SDS011;6493;50.928;7.172;2023-05-07T01:31:00;0.30;;;0.30;;
12848;SDS011;6493;50.928;7.172;2023-05-07T01:36:06;0.40;;;0.40;;
12848;SDS011;6493;50.928;7.172;2023-05-07T01:41:12;0.40;;;0.40;;
12848;SDS011;6493;50.928;7.172;2023-05-07T01:46:16;0.40;;;0.40;;
12848;SDS011;6493;50.928;7.172;2023-05-07T01:51:21;0.50;;;0.50;;
12848;SDS011;6493;50.928;7.172;2023-05-07T01:56:26;0.53;;;0.50;;
12848;SDS011;6493;50.928;7.172;2023-05-07T02:01:31;0.30;;;0.30;;
12848;SDS011;6493;50.928;7.172;2023-05-07T02:06:35;0.30;;;0.30;;
12848;SDS011;6493;50.928;7.172;2023-05-07T02:11:43;0.40;;;0.40;;
12848;SDS011;6493;50.928;7.172;2023-05-07T02:16:47;0.30;;;0.30;;
12848;SDS011;6493;50.928;7.172;2023-05-07T02:21:52;1.10;;;0.60;;
12848;SDS011;6493;50.928;7.172;2023-05-07T02:27:05;0.47;;;0.47;;
12848;SDS011;6493;50.928;7.172;2023-05-07T02:32:09;0.50;;;0.50;;
12848;SDS011;6493;50.928;7.172;2023-05-07T02:37:12;1.23;;;0.80;;
12848;SDS011;6493;50.928;7.172;2023-05-07T02:42:18;0.53;;;0.50;;
12848;SDS011;6493;50.928;7.172;2023-05-07T02:47:22;0.40;;;0.40;;
12848;SDS011;6493;50.928;7.172;2023-05-07T02:52:26;0.40;;;0.30;;
12848;SDS011;6493;50.928;7.172;2023-05-07T02:57:31;0.40;;;0.40;;
12848;SDS011;6493;50.928;7.172;2023-05-07T03:02:34;0.20;;;0.20;;
12848;SDS011;6493;50.928;7.172;2023-05-07T03:07:38;0.40;;;0.40;;
12848;SDS011;6493;50.928;7.172;2023-05-07T03:12:44;0.30;;;0.30;;
12848;SDS011;6493;50.928;7.172;2023-05-07T03:17:50;0.87;;;0.37;;
12848;SDS011;6493;50.928;7.172;2023-05-07T03:22:54;0.30;;;0.30;;
12848;SDS011;6493;50.928;7.172;2023-05-07T03:27:59;0.30;;;0.30;;
12848;SDS011;6493;50.928;7.172;2023-05-07T03:33:12;0.20;;;0.20;;
12848;SDS011;6493;50.928;7.172;2023-05-07T03:38:16;0.40;;;0.40;;
12848;SDS011;6493;50.928;7.172;2023-05-07T03:43:21;0.20;;;0.20;;
12848;SDS011;6493;50.928;7.172;2023-05-07T03:48:32;1.10;;;0.50;;
12848;SDS011;6493;50.928;7.172;2023-05-07T03:53:35;0.30;;;0.30;;
12848;SDS011;6493;50.928;7.172;2023-05-07T03:58:41;0.30;;;0.30;;
12848;SDS011;6493;50.928;7.172;2023-05-07T04:03:46;0.30;;;0.30;;
12848;SDS011;6493;50.928;7.172;2023-05-07T04:08:50;0.30;;;0.30;;
12848;SDS011;6493;50.928;7.172;2023-05-07T04:13:54;0.43;;;0.43;;
12848;SDS011;6493;50.928;7.172;2023-05-07T04:18:58;0.60;;;0.50;;
12848;SDS011;6493;50.928;7.172;2023-05-07T04:24:03;0.40;;;0.40;;
12848;SDS011;6493;50.928;7.172;2023-05-07T04:29:08;0.43;;;0.43;;
12848;SDS011;6493;50.928;7.172;2023-05-07T04:34:13;0.30;;;0.30;;
12848;SDS011;6493;50.928;7.172;2023-05-07T04:39:17;0.40;;;0.40;;
12848;SDS011;6493;50.928;7.172;2023-05-07T04:44:24;0.40;;;0.40;;
12848;SDS011;6493;50.928;7.172;2023-05-07T04:49:29;0.40;;;0.40;;
12848;SDS011;6493;50.928;7.172;2023-05-07T04:54:33;0.40;;;0.40;;
12848;SDS011;6493;50.928;7.172;2023-05-07T04:59:38;0.23;;;0.23;;
12848;SDS011;6493;50.928;7.172;2023-05-07T05:04:42;0.93;;;0.30;;
12848;SDS011;6493;50.928;7.172;2023-05-07T05:09:46;0.40;;;0.40;;
12848;SDS011;6493;50.928;7.172;2023-05-07T05:14:51;0.40;;;0.40;;
12848;SDS011;6493;50.928;7.172;2023-05-07T05:19:56;0.47;;;0.47;;
12848;SDS011;6493;50.928;7.172;2023-05-07T05:24:59;0.53;;;0.53;;
12848;SDS011;6493;50.928;7.172;2023-05-07T05:30:05;0.50;;;0.50;;
12848;SDS011;6493;50.928;7.172;2023-05-07T05:35:11;0.80;;;0.70;;
12848;SDS011;6493;50.928;7.172;2023-05-07T05:40:17;0.50;;;0.50;;
12848;SDS011;6493;50.928;7.172;2023-05-07T05:45:22;0.50;;;0.50;;
12848;SDS011;6493;50.928;7.172;2023-05-07T05:50:26;0.50;;;0.50;;
12848;SDS011;6493;50.928;7.172;2023-05-07T05:55:30;0.80;;;0.60;;
12848;SDS011;6493;50.928;7.172;2023-05-07T06:00:36;1.13;;;0.50;;
12848;SDS011;6493;50.928;7.172;2023-05-07T06:05:41;0.30;;;0.30;;
12848;SDS011;6493;50.928;7.172;2023-05-07T06:10:45;0.40;;;0.40;;
12848;SDS011;6493;50.928;7.172;2023-05-07T06:15:50;1.10;;;0.40;;
12848;SDS011;6493;50.928;7.172;2023-05-07T06:20:54;0.60;;;0.60;;
12848;SDS011;6493;50.928;7.172;2023-05-07T06:26:02;1.63;;;0.70;;
12848;SDS011;6493;50.928;7.172;2023-05-07T06:31:13;0.60;;;0.60;;
12848;SDS011;6493;50.928;7.172;2023-05-07T06:36:24;0.90;;;0.60;;
12848;SDS011;6493;50.928;7.172;2023-05-07T06:41:32;0.70;;;0.70;;
12848;SDS011;6493;50.928;7.172;2023-05-07T06:46:43;0.50;;;0.50;;
12848;SDS011;6493;50.928;7.172;2023-05-07T06:51:47;0.40;;;0.40;;
12848;SDS011;6493;50.928;7.172;2023-05-07T06:56:51;0.60;;;0.60;;
12848;SDS011;6493;50.928;7.172;2023-05-07T07:01:57;0.50;;;0.50;;
12848;SDS011;6493;50.928;7.172;2023-05-07T07:07:01;0.93;;;0.80;;
12848;SDS011;6493;50.928;7.172;2023-05-07T07:12:05;0.60;;;0.60;;
12848;SDS011;6493;50.928;7.172;2023-05-07T07:17:13;0.63;;;0.60;;
12848;SDS011;6493;50.928;7.172;2023-05-07T07:22:17;0.77;;;0.63;;
12848;SDS011;6493;50.928;7.172;2023-05-07T07:27:21;0.53;;;0.40;;
12848;SDS011;6493;50.928;7.172;2023-05-07T07:32:26;0.60;;;0.60;;
12848;SDS011;6493;50.928;7.172;2023-05-07T07:37:30;0.70;;;0.70;;
12848;SDS011;6493;50.928;7.172;2023-05-07T07:42:34;0.93;;;0.60;;
12848;SDS011;6493;50.928;7.172;2023-05-07T07:47:39;0.80;;;0.70;;
12848;SDS011;6493;50.928;7.172;2023-05-07T07:52:43;0.80;;;0.80;;
12848;SDS011;6493;50.928;7.172;2023-05-07T07:57:50;0.70;;;0.70;;
12848;SDS011;6493;50.928;7.172;2023-05-07T08:02:55;1.03;;;0.57;;
12848;SDS011;6493;50.928;7.172;2023-05-07T08:08:04;0.80;;;0.80;;
12848;SDS011;6493;50.928;7.172;2023-05-07T08:13:09;1.37;;;0.60;;
12848;SDS011;6493;50.928;7.172;2023-05-07T08:18:16;0.70;;;0.70;;
12848;SDS011;6493;50.928;7.172;2023-05-07T08:23:20;2.20;;;0.70;;
12848;SDS011;6493;50.928;7.172;2023-05-07T08:28:24;0.60;;;0.60;;
12848;SDS011;6493;50.928;7.172;2023-05-07T08:33:29;1.17;;;0.67;;
12848;SDS011;6493;50.928;7.172;2023-05-07T08:38:33;0.53;;;0.53;;
12848;SDS011;6493;50.928;7.172;2023-05-07T08:43:37;0.97;;;0.87;;
12848;SDS011;6493;50.928;7.172;2023-05-07T08:48:46;0.80;;;0.70;;
12848;SDS011;6493;50.928;7.172;2023-05-07T08:53:51;0.83;;;0.70;;
12848;SDS011;6493;50.928;7.172;2023-05-07T08:59:02;0.60;;;0.60;;
12848;SDS011;6493;50.928;7.172;2023-05-07T09:04:08;0.73;;;0.73;;
12848;SDS011;6493;50.928;7.172;2023-05-07T09:09:14;0.80;;;0.80;;
12848;SDS011;6493;50.928;7.172;2023-05-07T09:14:21;0.90;;;0.70;;
12848;SDS011;6493;50.928;7.172;2023-05-07T09:19:26;0.80;;;0.80;;
12848;SDS011;6493;50.928;7.172;2023-05-07T09:24:34;0.70;;;0.70;;
12848;SDS011;6493;50.928;7.172;2023-05-07T09:29:42;0.73;;;0.70;;
12848;SDS011;6493;50.928;7.172;2023-05-07T09:34:49;1.00;;;0.80;;
12848;SDS011;6493;50.928;7.172;2023-05-07T09:39:56;0.77;;;0.67;;
12848;SDS011;6493;50.928;7.172;2023-05-07T09:45:02;1.17;;;0.73;;
12848;SDS011;6493;50.928;7.172;2023-05-07T09:50:13;0.80;;;0.60;;
12848;SDS011;6493;50.928;7.172;2023-05-07T09:55:19;0.60;;;0.60;;
12848;SDS011;6493;50.928;7.172;2023-05-07T10:00:24;0.70;;;0.70;;
12848;SDS011;6493;50.928;7.172;2023-05-07T10:05:39;1.20;;;0.77;;
12848;SDS011;6493;50.928;7.172;2023-05-07T10:10:47;0.70;;;0.67;;
12848;SDS011;6493;50.928;7.172;2023-05-07T10:15:56;3.33;;;1.20;;
12848;SDS011;6493;50.928;7.172;2023-05-07T10:21:07;2.03;;;1.17;;
12848;SDS011;6493;50.928;7.172;2023-05-07T10:26:20;0.80;;;0.70;;
12848;SDS011;6493;50.928;7.172;2023-05-07T10:31:31;0.77;;;0.63;;
12848;SDS011;6493;50.928;7.172;2023-05-07T10:36:53;0.60;;;0.60;;
12848;SDS011;6493;50.928;7.172;2023-05-07T10:42:07;1.67;;;0.70;;
12848;SDS011;6493;50.928;7.172;2023-05-07T10:47:13;0.77;;;0.70;;
12848;SDS011;6493;50.928;7.172;2023-05-07T10:52:22;1.20;;;0.60;;
12848;SDS011;6493;50.928;7.172;2023-05-07T10:57:44;1.00;;;0.80;;
12848;SDS011;6493;50.928;7.172;2023-05-07T11:03:06;0.50;;;0.50;;
12848;SDS011;6493;50.928;7.172;2023-05-07T11:08:33;1.03;;;0.77;;
12848;SDS011;6493;50.928;7.172;2023-05-07T11:13:59;0.60;;;0.60;;
12848;SDS011;6493;50.928;7.172;2023-05-07T11:19:12;0.80;;;0.80;;
12848;SDS011;6493;50.928;7.172;2023-05-07T11:24:23;1.33;;;0.70;;
12848;SDS011;6493;50.928;7.172;2023-05-07T11:29:33;0.50;;;0.50;;
12848;SDS011;6493;50.928;7.172;2023-05-07T11:34:41;0.60;;;0.60;;
12848;SDS011;6493;50.928;7.172;2023-05-07T11:39:49;0.70;;;0.70;;
12848;SDS011;6493;50.928;7.172;2023-05-07T11:44:56;0.70;;;0.60;;
12848;SDS011;6493;50.928;7.172;2023-05-07T11:50:02;0.57;;;0.57;;
12848;SDS011;6493;50.928;7.172;2023-05-07T11:55:09;0.63;;;0.40;;
12848;SDS011;6493;50.928;7.172;2023-05-07T12:00:15;0.73;;;0.60;;
12848;SDS011;6493;50.928;7.172;2023-05-07T12:05:19;0.60;;;0.60;;
12848;SDS011;6493;50.928;7.172;2023-05-07T12:10:24;0.50;;;0.50;;
12848;SDS011;6493;50.928;7.172;2023-05-07T12:15:27;0.63;;;0.60;;
12848;SDS011;6493;50.928;7.172;2023-05-07T12:20:31;0.40;;;0.40;;
12848;SDS011;6493;50.928;7.172;2023-05-07T12:25:36;0.50;;;0.50;;
12848;SDS011;6493;50.928;7.172;2023-05-07T12:30:40;0.40;;;0.40;;
12848;SDS011;6493;50.928;7.172;2023-05-07T12:35:45;0.50;;;0.50;;
12848;SDS011;6493;50.928;7.172;2023-05-07T12:40:54;0.47;;;0.40;;
12848;SDS011;6493;50.928;7.172;2023-05-07T12:45:59;0.63;;;0.40;;
12848;SDS011;6493;50.928;7.172;2023-05-07T12:51:04;0.70;;;0.70;;
12848;SDS011;6493;50.928;7.172;2023-05-07T12:56:10;1.73;;;0.87;;
12848;SDS011;6493;50.928;7.172;2023-05-07T13:01:14;1.00;;;0.80;;
12848;SDS011;6493;50.928;7.172;2023-05-07T13:06:21;0.73;;;0.50;;
12848;SDS011;6493;50.928;7.172;2023-05-07T13:11:25;0.50;;;0.50;;
12848;SDS011;6493;50.928;7.172;2023-05-07T13:16:29;0.40;;;0.40;;
12848;SDS011;6493;50.928;7.172;2023-05-07T13:21:33;0.60;;;0.60;;
12848;SDS011;6493;50.928;7.172;2023-05-07T13:26:38;0.93;;;0.50;;
12848;SDS011;6493;50.928;7.172;2023-05-07T13:31:41;1.07;;;0.60;;
12848;SDS011;6493;50.928;7.172;2023-05-07T13:36:46;0.30;;;0.30;;
12848;SDS011;6493;50.928;7.172;2023-05-07T13:41:50;0.50;;;0.50;;
12848;SDS011;6493;50.928;7.172;2023-05-07T13:46:54;0.50;;;0.50;;
12848;SDS011;6493;50.928;7.172;2023-05-07T13:51:58;0.40;;;0.40;;
12848;SDS011;6493;50.928;7.172;2023-05-07T13:57:02;0.50;;;0.50;;
12848;SDS011;6493;50.928;7.172;2023-05-07T14:02:06;1.80;;;0.83;;
12848;SDS011;6493;50.928;7.172;2023-05-07T14:07:11;0.60;;;0.60;;
12848;SDS011;6493;50.928;7.172;2023-05-07T14:12:15;0.63;;;0.60;;
12848;SDS011;6493;50.928;7.172;2023-05-07T14:17:19;0.50;;;0.50;;
12848;SDS011;6493;50.928;7.172;2023-05-07T14:22:24;0.40;;;0.40;;
12848;SDS011;6493;50.928;7.172;2023-05-07T14:27:29;0.57;;;0.50;;
12848;SDS011;6493;50.928;7.172;2023-05-07T14:32:33;1.57;;;0.40;;
12848;SDS011;6493;50.928;7.172;2023-05-07T14:37:37;0.40;;;0.40;;
12848;SDS011;6493;50.928;7.172;2023-05-07T14:42:42;0.33;;;0.33;;
12848;SDS011;6493;50.928;7.172;2023-05-07T14:47:45;0.50;;;0.50;;
12848;SDS011;6493;50.928;7.172;2023-05-07T14:52:49;0.50;;;0.50;;
12848;SDS011;6493;50.928;7.172;2023-05-07T14:57:53;0.50;;;0.50;;
12848;SDS011;6493;50.928;7.172;2023-05-07T15:03:01;0.60;;;0.60;;
12848;SDS011;6493;50.928;7.172;2023-05-07T15:08:09;0.87;;;0.40;;
12848;SDS011;6493;50.928;7.172;2023-05-07T15:13:14;0.30;;;0.30;;
12848;SDS011;6493;50.928;7.172;2023-05-07T15:18:18;0.60;;;0.50;;
12848;SDS011;6493;50.928;7.172;2023-05-07T15:23:23;0.50;;;0.40;;
12848;SDS011;6493;50.928;7.172;2023-05-07T15:28:29;0.40;;;0.40;;
12848;SDS011;6493;50.928;7.172;2023-05-07T15:33:34;0.37;;;0.33;;
12848;SDS011;6493;50.928;7.172;2023-05-07T15:38:38;0.30;;;0.30;;
12848;SDS011;6493;50.928;7.172;2023-05-07T15:43:44;0.30;;;0.30;;
12848;SDS011;6493;50.928;7.172;2023-05-07T15:48:50;0.40;;;0.40;;
12848;SDS011;6493;50.928;7.172;2023-05-07T15:53:54;1.03;;;0.50;;
12848;SDS011;6493;50.928;7.172;2023-05-07T15:58:59;1.13;;;0.60;;
12848;SDS011;6493;50.928;7.172;2023-05-07T16:04:05;1.00;;;0.63;;
12848;SDS011;6493;50.928;7.172;2023-05-07T16:09:09;0.80;;;0.60;;
12848;SDS011;6493;50.928;7.172;2023-05-07T16:14:14;0.60;;;0.60;;
12848;SDS011;6493;50.928;7.172;2023-05-07T16:19:17;0.60;;;0.60;;
12848;SDS011;6493;50.928;7.172;2023-05-07T16:24:21;1.57;;;0.70;;
12848;SDS011;6493;50.928;7.172;2023-05-07T16:29:26;1.30;;;0.70;;
12848;SDS011;6493;50.928;7.172;2023-05-07T16:34:30;1.13;;;0.90;;
12848;SDS011;6493;50.928;7.172;2023-05-07T16:39:33;0.80;;;0.80;;
12848;SDS011;6493;50.928;7.172;2023-05-07T16:44:38;1.00;;;0.80;;
12848;SDS011;6493;50.928;7.172;2023-05-07T16:49:42;1.00;;;0.90;;
12848;SDS011;6493;50.928;7.172;2023-05-07T16:54:45;0.80;;;0.80;;
12848;SDS011;6493;50.928;7.172;2023-05-07T16:59:50;0.90;;;0.80;;
12848;SDS011;6493;50.928;7.172;2023-05-07T17:04:54;1.00;;;0.90;;
12848;SDS011;6493;50.928;7.172;2023-05-07T17:09:58;0.80;;;0.80;;
12848;SDS011;6493;50.928;7.172;2023-05-07T17:15:03;0.77;;;0.77;;
12848;SDS011;6493;50.928;7.172;2023-05-07T17:20:08;0.80;;;0.80;;
12848;SDS011;6493;50.928;7.172;2023-05-07T17:25:12;0.90;;;0.90;;
12848;SDS011;6493;50.928;7.172;2023-05-07T17:30:17;1.83;;;0.90;;
12848;SDS011;6493;50.928;7.172;2023-05-07T17:35:21;0.57;;;0.57;;
12848;SDS011;6493;50.928;7.172;2023-05-07T17:40:24;1.50;;;0.70;;
12848;SDS011;6493;50.928;7.172;2023-05-07T17:45:32;0.70;;;0.70;;
12848;SDS011;6493;50.928;7.172;2023-05-07T17:50:35;0.63;;;0.60;;
12848;SDS011;6493;50.928;7.172;2023-05-07T17:55:42;0.57;;;0.57;;
12848;SDS011;6493;50.928;7.172;2023-05-07T18:00:47;0.60;;;0.60;;
12848;SDS011;6493;50.928;7.172;2023-05-07T18:05:51;0.63;;;0.50;;
12848;SDS011;6493;50.928;7.172;2023-05-07T18:10:54;0.63;;;0.57;;
12848;SDS011;6493;50.928;7.172;2023-05-07T18:15:59;0.70;;;0.70;;
12848;SDS011;6493;50.928;7.172;2023-05-07T18:21:03;0.63;;;0.60;;
12848;SDS011;6493;50.928;7.172;2023-05-07T18:26:06;0.97;;;0.90;;
12848;SDS011;6493;50.928;7.172;2023-05-07T18:31:11;1.10;;;1.00;;
12848;SDS011;6493;50.928;7.172;2023-05-07T18:36:15;1.27;;;1.17;;
12848;SDS011;6493;50.928;7.172;2023-05-07T18:41:19;1.30;;;1.20;;
12848;SDS011;6493;50.928;7.172;2023-05-07T18:46:24;1.47;;;1.13;;
12848;SDS011;6493;50.928;7.172;2023-05-07T18:51:29;1.13;;;0.90;;
12848;SDS011;6493;50.928;7.172;2023-05-07T18:56:33;1.33;;;0.90;;
12848;SDS011;6493;50.928;7.172;2023-05-07T19:01:38;0.70;;;0.70;;
12848;SDS011;6493;50.928;7.172;2023-05-07T19:06:42;0.70;;;0.70;;
12848;SDS011;6493;50.928;7.172;2023-05-07T19:11:45;1.27;;;0.80;;
12848;SDS011;6493;50.928;7.172;2023-05-07T19:16:50;0.60;;;0.60;;
12848;SDS011;6493;50.928;7.172;2023-05-07T19:21:54;0.60;;;0.60;;
12848;SDS011;6493;50.928;7.172;2023-05-07T19:26:58;1.00;;;0.80;;
12848;SDS011;6493;50.928;7.172;2023-05-07T19:32:04;1.23;;;0.87;;
12848;SDS011;6493;50.928;7.172;2023-05-07T19:37:08;0.80;;;0.80;;
12848;SDS011;6493;50.928;7.172;2023-05-07T19:42:11;1.30;;;1.20;;
12848;SDS011;6493;50.928;7.172;2023-05-07T19:47:17;0.73;;;0.73;;
12848;SDS011;6493;50.928;7.172;2023-05-07T19:52:21;0.83;;;0.83;;
12848;SDS011;6493;50.928;7.172;2023-05-07T19:57:24;1.00;;;1.00;;
12848;SDS011;6493;50.928;7.172;2023-05-07T20:02:29;1.53;;;1.20;;
12848;SDS011;6493;50.928;7.172;2023-05-07T20:07:33;1.43;;;1.33;;
12848;SDS011;6493;50.928;7.172;2023-05-07T20:12:37;1.33;;;1.23;;
12848;SDS011;6493;50.928;7.172;2023-05-07T20:17:42;1.30;;;1.20;;
12848;SDS011;6493;50.928;7.172;2023-05-07T20:22:46;1.20;;;1.10;;
12848;SDS011;6493;50.928;7.172;2023-05-07T20:27:50;1.20;;;1.10;;
12848;SDS011;6493;50.928;7.172;2023-05-07T20:32:55;1.00;;;1.00;;
12848;SDS011;6493;50.928;7.172;2023-05-07T20:37:58;1.00;;;1.00;;
12848;SDS011;6493;50.928;7.172;2023-05-07T20:43:04;0.80;;;0.80;;
12848;SDS011;6493;50.928;7.172;2023-05-07T20:48:10;0.90;;;0.70;;
12848;SDS011;6493;50.928;7.172;2023-05-07T20:53:14;0.90;;;0.90;;
12848;SDS011;6493;50.928;7.172;2023-05-07T20:58:17;1.20;;;1.10;;
12848;SDS011;6493;50.928;7.172;2023-05-07T21:03:22;2.13;;;1.10;;
12848;SDS011;6493;50.928;7.172;2023-05-07T21:08:26;1.17;;;1.00;;
12848;SDS011;6493;50.928;7.172;2023-05-07T21:13:30;0.77;;;0.77;;
12848;SDS011;6493;50.928;7.172;2023-05-07T21:18:34;0.70;;;0.70;;
12848;SDS011;6493;50.928;7.172;2023-05-07T21:23:38;0.80;;;0.80;;
12848;SDS011;6493;50.928;7.172;2023-05-07T21:28:42;0.80;;;0.80;;
12848;SDS011;6493;50.928;7.172;2023-05-07T21:33:47;1.20;;;1.10;;
12848;SDS011;6493;50.928;7.172;2023-05-07T21:38:50;1.07;;;0.97;;
12848;SDS011;6493;50.928;7.172;2023-05-07T21:43:54;0.60;;;0.60;;
12848;SDS011;6493;50.928;7.172;2023-05-07T21:48:59;0.60;;;0.60;;
12848;SDS011;6493;50.928;7.172;2023-05-07T21:54:02;1.53;;;0.80;;
12848;SDS011;6493;50.928;7.172;2023-05-07T21:59:07;0.80;;;0.80;;
12848;SDS011;6493;50.928;7.172;2023-05-07T22:04:12;1.43;;;1.10;;
12848;SDS011;6493;50.928;7.172;2023-05-07T22:09:15;1.00;;;1.00;;
12848;SDS011;6493;50.928;7.172;2023-05-07T22:14:20;1.37;;;1.27;;
12848;SDS011;6493;50.928;7.172;2023-05-07T22:19:25;1.40;;;1.30;;
12848;SDS011;6493;50.928;7.172;2023-05-07T22:24:29;1.43;;;1.33;;
12848;SDS011;6493;50.928;7.172;2023-05-07T22:29:33;1.70;;;1.30;;
12848;SDS011;6493;50.928;7.172;2023-05-07T22:34:38;1.30;;;1.20;;
12848;SDS011;6493;50.928;7.172;2023-05-07T22:39:41;1.57;;;1.47;;
12848;SDS011;6493;50.928;7.172;2023-05-07T22:44:45;1.30;;;1.20;;
12848;SDS011;6493;50.928;7.172;2023-05-07T22:49:50;1.20;;;1.10;;
12848;SDS011;6493;50.928;7.172;2023-05-07T22:54:53;1.20;;;1.10;;
12848;SDS011;6493;50.928;7.172;2023-05-07T22:59:57;0.90;;;0.90;;
12848;SDS011;6493;50.928;7.172;2023-05-07T23:05:02;1.73;;;1.00;;
12848;SDS011;6493;50.928;7.172;2023-05-07T23:10:06;1.53;;;1.43;;
12848;SDS011;6493;50.928;7.172;2023-05-07T23:15:10;1.60;;;1.50;;
12848;SDS011;6493;50.928;7.172;2023-05-07T23:20:16;1.30;;;1.20;;
12848;SDS011;6493;50.928;7.172;2023-05-07T23:25:19;1.20;;;1.10;;
12848;SDS011;6493;50.928;7.172;2023-05-07T23:30:23;1.83;;;0.80;;
12848;SDS011;6493;50.928;7.172;2023-05-07T23:35:28;0.70;;;0.70;;
12848;SDS011;6493;50.928;7.172;2023-05-07T23:40:31;0.63;;;0.63;;
12848;SDS011;6493;50.928;7.172;2023-05-07T23:45:35;1.90;;;0.70;;
12848;SDS011;6493;50.928;7.172;2023-05-07T23:50:40;1.00;;;0.80;;
12848;SDS011;6493;50.928;7.172;2023-05-07T23:55:44;0.63;;;0.63;;
